58.2°F
Current conditions from King Hill
Updated every 5 minutes
 
  Tuesday September 23, 2014

Station Historical Data
Daily Summary for May 2, 2012 Units:  English    Metric   Both
« Previous Day
Next Day »
Daily Weekly Monthly Yearly Custom
  High: Low: Average:
Temperature: 61.8 °F 43.6 °F 51.1 °F
Dew Point: 49.3 °F 41.8 °F 44.9 °F
Humidity: 95% 59% 80%
Wind Speed: 6.0mph 0.0mph 2.3mph
Wind Gust: 14.0mph - -
Wind- - SSE
Pressure: 30.13 in 30.01 in -
Precipitation: 0.01 in    
Historical Graphs
 
 
Tabular Data for May 2, 2012
Time Temperature Dew Point Pressure Wind Wind Speed Wind Gust Humidity Daily Rainfall
00:04 45.6 °F 42.5 °F 30.05 in Calm     89% 0.00 in
00:09 45.6 °F 42.8 °F 30.05 in Calm     90% 0.00 in
00:14 45.5 °F 42.7 °F 30.05 in Calm     90% 0.00 in
00:19 45.5 °F 42.7 °F 30.05 in Calm     90% 0.00 in
00:24 45.4 °F 42.6 °F 30.05 in Calm     90% 0.00 in
00:29 45.4 °F 42.6 °F 30.05 in Calm     90% 0.00 in
00:34 45.4 °F 42.6 °F 30.06 in Calm     90% 0.00 in
00:39 45.4 °F 42.6 °F 30.05 in Calm     90% 0.00 in
00:44 45.3 °F 42.5 °F 30.05 in Calm     90% 0.00 in
00:49 45.4 °F 42.6 °F 30.06 in Calm     90% 0.00 in
00:54 45.4 °F 42.6 °F 30.06 in Calm     90% 0.00 in
00:59 45.4 °F 42.6 °F 30.06 in Calm     90% 0.00 in
01:04 45.4 °F 42.6 °F 30.06 in Calm     90% 0.00 in
01:09 45.4 °F 42.6 °F 30.06 in Calm     90% 0.00 in
01:14 45.4 °F 42.6 °F 30.06 in Calm     90% 0.00 in
01:19 45.4 °F 42.6 °F 30.06 in Calm     90% 0.00 in
01:24 45.4 °F 42.6 °F 30.06 in Calm     90% 0.00 in
01:29 45.5 °F 42.7 °F 30.06 in Calm     90% 0.00 in
01:34 45.4 °F 42.6 °F 30.06 in Calm     90% 0.00 in
01:39 45.4 °F 42.6 °F 30.06 in Calm     90% 0.00 in
01:44 45.4 °F 42.6 °F 30.05 in Calm     90% 0.00 in
01:49 45.3 °F 42.8 °F 30.05 in Calm     91% 0.00 in
01:59 45.1 °F 42.3 °F 30.06 in Calm     90% 0.00 in
02:04 45.0 °F 42.2 °F 30.05 in Calm     90% 0.00 in
02:09 45.0 °F 42.5 °F 30.05 in Calm     91% 0.00 in
02:14 44.9 °F 42.4 °F 30.05 in Calm     91% 0.00 in
02:19 44.9 °F 42.4 °F 30.05 in Calm     91% 0.00 in
02:24 44.8 °F 42.3 °F 30.05 in Calm     91% 0.00 in
02:29 44.8 °F 42.3 °F 30.05 in Calm     91% 0.00 in
02:34 44.7 °F 42.2 °F 30.05 in Calm     91% 0.00 in
02:39 44.7 °F 42.2 °F 30.05 in Calm     91% 0.00 in
02:44 44.7 °F 42.2 °F 30.06 in Calm     91% 0.00 in
02:49 44.7 °F 42.2 °F 30.06 in Calm     91% 0.00 in
02:54 44.6 °F 42.4 °F 30.06 in Calm     92% 0.00 in
02:59 44.6 °F 42.4 °F 30.06 in Calm     92% 0.00 in
03:04 44.6 °F 42.4 °F 30.06 in Calm     92% 0.00 in
03:09 44.5 °F 42.3 °F 30.06 in Calm     92% 0.00 in
03:14 44.5 °F 42.3 °F 30.06 in Calm     92% 0.00 in
03:19 44.4 °F 42.2 °F 30.06 in Calm     92% 0.00 in
03:24 44.4 °F 42.2 °F 30.06 in Calm     92% 0.00 in
03:29 44.3 °F 42.1 °F 30.06 in Calm     92% 0.00 in
03:34 44.3 °F 42.1 °F 30.06 in Calm     92% 0.00 in
03:39 44.3 °F 42.4 °F 30.06 in Calm     93% 0.00 in
03:49 44.4 °F 42.5 °F 30.06 in Calm     93% 0.00 in
03:54 44.4 °F 42.5 °F 30.06 in Calm     93% 0.00 in
03:59 44.3 °F 42.4 °F 30.06 in Calm     93% 0.00 in
04:04 44.4 °F 42.5 °F 30.06 in Calm     93% 0.00 in
04:09 44.3 °F 42.4 °F 30.06 in Calm     93% 0.00 in
04:14 44.3 °F 42.4 °F 30.06 in Calm     93% 0.00 in
04:19 44.2 °F 42.3 °F 30.07 in Calm     93% 0.00 in
04:24 44.2 °F 42.3 °F 30.07 in Calm     93% 0.00 in
04:34 44.1 °F 42.2 °F 30.07 in Calm     93% 0.00 in
04:39 44.1 °F 42.2 °F 30.07 in Calm     93% 0.00 in
04:44 44.0 °F 42.1 °F 30.08 in Calm     93% 0.00 in
04:49 43.9 °F 42.0 °F 30.07 in Calm     93% 0.00 in
04:54 43.9 °F 42.0 °F 30.07 in Calm     93% 0.00 in
04:59 43.9 °F 42.0 °F 30.08 in Calm   3.0 mph 93% 0.00 in
05:04 43.8 °F 41.9 °F 30.08 in Calm   3.0 mph 93% 0.00 in
05:09 43.7 °F 41.8 °F 30.08 in Calm   2.0 mph 93% 0.00 in
05:14 43.7 °F 41.8 °F 30.08 in Calm   2.0 mph 93% 0.00 in
05:19 43.7 °F 42.1 °F 30.08 in Calm   2.0 mph 94% 0.00 in
05:24 43.7 °F 42.1 °F 30.08 in SE 1.0 mph 2.0 mph 94% 0.00 in
05:34 43.7 °F 42.1 °F 30.08 in Calm   1.0 mph 94% 0.00 in
05:44 43.6 °F 42.0 °F 30.08 in Calm     94% 0.01 in
05:54 43.7 °F 42.1 °F 30.08 in Calm   1.0 mph 94% 0.01 in
05:59 43.7 °F 42.1 °F 30.08 in Calm   1.0 mph 94% 0.01 in
06:04 43.8 °F 42.2 °F 30.08 in Calm   2.0 mph 94% 0.01 in
06:09 43.9 °F 42.3 °F 30.08 in Calm   2.0 mph 94% 0.01 in
06:14 43.9 °F 42.3 °F 30.09 in Calm     94% 0.01 in
06:19 44.0 °F 42.4 °F 30.09 in Calm     94% 0.01 in
06:24 44.0 °F 42.4 °F 30.10 in Calm     94% 0.01 in
06:29 44.0 °F 42.4 °F 30.09 in Calm     94% 0.01 in
06:34 44.1 °F 42.5 °F 30.09 in Calm   1.0 mph 94% 0.01 in
06:39 44.2 °F 42.6 °F 30.09 in Calm   3.0 mph 94% 0.01 in
06:44 44.2 °F 42.6 °F 30.10 in SE 1.0 mph 3.0 mph 94% 0.01 in
06:49 44.1 °F 42.5 °F 30.10 in Calm   3.0 mph 94% 0.01 in
06:54 44.0 °F 42.4 °F 30.09 in ESE 1.0 mph 3.0 mph 94% 0.01 in
06:59 43.9 °F 42.6 °F 30.10 in Calm   3.0 mph 95% 0.01 in
07:04 43.8 °F 42.5 °F 30.09 in Calm   3.0 mph 95% 0.01 in
07:09 43.9 °F 42.6 °F 30.10 in ESE 1.0 mph 3.0 mph 95% 0.01 in
07:14 43.9 °F 42.6 °F 30.10 in Calm   3.0 mph 95% 0.01 in
07:19 44.0 °F 42.7 °F 30.10 in ESE 1.0 mph 3.0 mph 95% 0.01 in
07:24 44.1 °F 42.8 °F 30.09 in Calm   3.0 mph 95% 0.01 in
07:29 44.3 °F 43.0 °F 30.09 in ESE 1.0 mph 4.0 mph 95% 0.01 in
07:34 44.3 °F 43.0 °F 30.09 in ESE 1.0 mph 4.0 mph 95% 0.01 in
07:39 44.5 °F 43.2 °F 30.10 in ESE 1.0 mph 4.0 mph 95% 0.01 in
07:44 44.6 °F 43.3 °F 30.10 in ENE 1.0 mph 3.0 mph 95% 0.01 in
07:49 44.6 °F 43.3 °F 30.10 in NE 1.0 mph 5.0 mph 95% 0.01 in
07:54 44.6 °F 43.3 °F 30.11 in Calm   5.0 mph 95% 0.01 in
07:59 44.9 °F 43.6 °F 30.12 in Calm   3.0 mph 95% 0.01 in
08:04 44.9 °F 43.6 °F 30.12 in NE 1.0 mph 5.0 mph 95% 0.01 in
08:09 44.9 °F 43.6 °F 30.12 in Calm   5.0 mph 95% 0.01 in
08:14 45.0 °F 43.7 °F 30.12 in Calm   2.0 mph 95% 0.01 in
08:19 45.0 °F 43.7 °F 30.13 in Calm   3.0 mph 95% 0.01 in
08:24 45.0 °F 43.7 °F 30.13 in ENE 1.0 mph 3.0 mph 95% 0.01 in
08:29 45.0 °F 43.7 °F 30.12 in Calm   3.0 mph 95% 0.01 in
08:39 45.0 °F 43.7 °F 30.12 in ENE 1.0 mph 5.0 mph 95% 0.01 in
08:44 45.1 °F 43.8 °F 30.12 in ENE 1.0 mph 5.0 mph 95% 0.01 in
08:49 45.1 °F 43.8 °F 30.12 in ENE 2.0 mph 5.0 mph 95% 0.01 in
08:59 45.5 °F 44.2 °F 30.12 in NE 1.0 mph 6.0 mph 95% 0.01 in
09:04 45.8 °F 44.5 °F 30.12 in ENE 1.0 mph 6.0 mph 95% 0.01 in
09:09 46.1 °F 44.7 °F 30.11 in ENE 1.0 mph 5.0 mph 95% 0.01 in
09:14 46.3 °F 44.9 °F 30.11 in Calm   4.0 mph 95% 0.01 in
09:19 46.6 °F 45.0 °F 30.11 in Calm   6.0 mph 94% 0.01 in
09:24 46.9 °F 45.3 °F 30.11 in ENE 2.0 mph 7.0 mph 94% 0.01 in
09:29 47.0 °F 45.1 °F 30.11 in East 1.0 mph 7.0 mph 93% 0.01 in
09:34 47.2 °F 44.7 °F 30.12 in Calm   7.0 mph 91% 0.01 in
09:39 47.5 °F 44.7 °F 30.11 in ENE 3.0 mph 7.0 mph 90% 0.01 in
09:44 48.0 °F 44.9 °F 30.11 in Calm   7.0 mph 89% 0.01 in
09:49 48.3 °F 44.9 °F 30.11 in East 1.0 mph 6.0 mph 88% 0.01 in
09:54 48.5 °F 44.5 °F 30.11 in ENE 3.0 mph 7.0 mph 86% 0.01 in
09:59 48.5 °F 44.5 °F 30.11 in ENE 1.0 mph 8.0 mph 86% 0.01 in
10:04 48.6 °F 44.6 °F 30.12 in Calm   8.0 mph 86% 0.01 in
10:09 48.8 °F 44.5 °F 30.12 in Calm   4.0 mph 85% 0.01 in
10:14 49.1 °F 44.8 °F 30.11 in Calm   4.0 mph 85% 0.01 in
10:19 49.3 °F 44.7 °F 30.11 in NE 1.0 mph 4.0 mph 84% 0.01 in
10:24 49.4 °F 44.5 °F 30.11 in NE 1.0 mph 4.0 mph 83% 0.01 in
10:29 49.7 °F 44.8 °F 30.11 in NE 1.0 mph 5.0 mph 83% 0.01 in
10:34 50.2 °F 45.2 °F 30.11 in Calm   6.0 mph 83% 0.01 in
10:39 50.6 °F 45.0 °F 30.11 in Calm   6.0 mph 81% 0.01 in
10:44 50.9 °F 45.6 °F 30.11 in Calm   4.0 mph 82% 0.01 in
10:49 51.0 °F 45.4 °F 30.11 in Calm   1.0 mph 81% 0.01 in
10:54 51.0 °F 45.1 °F 30.11 in Calm   1.0 mph 80% 0.01 in
10:59 51.0 °F 45.4 °F 30.11 in Calm   1.0 mph 81% 0.01 in
11:04 51.2 °F 45.6 °F 30.11 in Calm     81% 0.01 in
11:09 51.3 °F 45.7 °F 30.11 in Calm     81% 0.01 in
11:14 51.6 °F 46.0 °F 30.11 in Calm   1.0 mph 81% 0.01 in
11:19 51.9 °F 45.9 °F 30.12 in Calm   1.0 mph 80% 0.01 in
11:24 52.3 °F 46.3 °F 30.12 in Calm     80% 0.01 in
11:29 52.8 °F 46.8 °F 30.12 in Calm     80% 0.01 in
11:34 53.3 °F 46.6 °F 30.12 in Calm   1.0 mph 78% 0.01 in
11:44 54.1 °F 47.4 °F 30.12 in Calm   3.0 mph 78% 0.01 in
11:49 54.5 °F 47.8 °F 30.12 in Calm   1.0 mph 78% 0.01 in
11:54 54.9 °F 47.1 °F 30.12 in Calm   2.0 mph 75% 0.01 in
11:59 55.0 °F 47.6 °F 30.12 in Calm   2.0 mph 76% 0.01 in
12:04 54.9 °F 47.1 °F 30.12 in Calm   4.0 mph 75% 0.01 in
12:09 54.8 °F 47.0 °F 30.12 in Calm   4.0 mph 75% 0.01 in
12:14 55.0 °F 47.2 °F 30.12 in ENE 2.0 mph 5.0 mph 75% 0.01 in
12:19 55.3 °F 47.5 °F 30.12 in NE 2.0 mph 5.0 mph 75% 0.01 in
12:24 55.9 °F 47.7 °F 30.11 in ENE 3.0 mph 5.0 mph 74% 0.01 in
12:29 56.2 °F 48.0 °F 30.11 in Calm   8.0 mph 74% 0.01 in
12:34 56.2 °F 47.7 °F 30.11 in Calm   8.0 mph 73% 0.01 in
12:39 56.4 °F 47.5 °F 30.11 in Calm   5.0 mph 72% 0.01 in
12:44 56.7 °F 47.4 °F 30.10 in Calm   1.0 mph 71% 0.01 in
12:49 56.5 °F 46.8 °F 30.10 in Calm   1.0 mph 70% 0.01 in
12:54 56.3 °F 47.0 °F 30.10 in Calm   1.0 mph 71% 0.01 in
12:59 56.3 °F 47.4 °F 30.10 in NNE 1.0 mph 3.0 mph 72% 0.01 in
13:04 57.0 °F 48.1 °F 30.09 in NNE 1.0 mph 3.0 mph 72% 0.01 in
13:09 57.4 °F 48.5 °F 30.09 in Calm   5.0 mph 72% 0.01 in
13:14 57.6 °F 47.9 °F 30.09 in Calm   5.0 mph 70% 0.01 in
13:19 57.8 °F 47.7 °F 30.09 in Calm   1.0 mph 69% 0.01 in
13:24 58.0 °F 47.9 °F 30.08 in Calm   1.0 mph 69% 0.01 in
13:29 58.0 °F 47.9 °F 30.08 in NE 2.0 mph 5.0 mph 69% 0.01 in
13:34 57.7 °F 47.6 °F 30.08 in Calm   5.0 mph 69% 0.01 in
13:44 57.5 °F 47.4 °F 30.07 in Calm   7.0 mph 69% 0.01 in
13:49 57.8 °F 47.7 °F 30.07 in NE 2.0 mph 7.0 mph 69% 0.01 in
13:54 58.0 °F 47.1 °F 30.07 in ENE 1.0 mph 7.0 mph 67% 0.01 in
13:59 58.3 °F 47.8 °F 30.07 in Calm   7.0 mph 68% 0.01 in
14:04 58.6 °F 47.7 °F 30.07 in NE 2.0 mph 10.0 mph 67% 0.01 in
14:09 58.7 °F 47.4 °F 30.07 in ENE 1.0 mph 10.0 mph 66% 0.01 in
14:14 58.7 °F 47.8 °F 30.07 in Calm   6.0 mph 67% 0.01 in
14:19 58.6 °F 47.7 °F 30.07 in Calm   5.0 mph 67% 0.01 in
14:24 59.0 °F 48.5 °F 30.07 in Calm   4.0 mph 68% 0.01 in
14:29 59.9 °F 49.3 °F 30.06 in ESE 1.0 mph 4.0 mph 68% 0.01 in
14:34 60.3 °F 48.5 °F 30.06 in East 2.0 mph 10.0 mph 65% 0.01 in
14:39 60.1 °F 47.5 °F 30.06 in Calm   10.0 mph 63% 0.01 in
14:44 59.2 °F 47.0 °F 30.06 in Calm   8.0 mph 64% 0.01 in
14:49 59.0 °F 47.7 °F 30.06 in Calm   8.0 mph 66% 0.01 in
14:54 59.0 °F 47.3 °F 30.06 in NE 1.0 mph 5.0 mph 65% 0.01 in
14:59 58.8 °F 47.5 °F 30.06 in Calm   5.0 mph 66% 0.01 in
15:04 59.0 °F 47.3 °F 30.06 in Calm   5.0 mph 65% 0.01 in
15:09 59.1 °F 47.4 °F 30.05 in Calm   2.0 mph 65% 0.01 in
15:14 59.3 °F 46.7 °F 30.05 in SE 3.0 mph 7.0 mph 63% 0.01 in
15:19 60.4 °F 47.8 °F 30.05 in South 1.0 mph 7.0 mph 63% 0.01 in
15:24 60.8 °F 49.0 °F 30.05 in Calm   7.0 mph 65% 0.01 in
15:29 61.3 °F 48.2 °F 30.05 in Calm   7.0 mph 62% 0.01 in
15:34 60.5 °F 47.4 °F 30.04 in East 2.0 mph 7.0 mph 62% 0.01 in
15:39 60.5 °F 47.9 °F 30.05 in Calm   7.0 mph 63% 0.01 in
15:44 60.5 °F 47.4 °F 30.05 in Calm   6.0 mph 62% 0.01 in
15:49 60.6 °F 47.9 °F 30.04 in Calm     63% 0.01 in
15:54 61.0 °F 48.7 °F 30.04 in Calm   1.0 mph 64% 0.01 in
15:59 61.1 °F 47.6 °F 30.04 in South 1.0 mph 7.0 mph 61% 0.01 in
16:04 61.2 °F 48.1 °F 30.04 in South 2.0 mph 7.0 mph 62% 0.01 in
16:09 60.8 °F 47.3 °F 30.04 in Calm   8.0 mph 61% 0.01 in
16:14 61.1 °F 48.0 °F 30.04 in Calm   8.0 mph 62% 0.01 in
16:19 61.2 °F 48.1 °F 30.04 in SSE 1.0 mph 9.0 mph 62% 0.01 in
16:24 61.0 °F 47.9 °F 30.04 in South 2.0 mph 9.0 mph 62% 0.01 in
16:29 60.7 °F 47.2 °F 30.04 in SSW 2.0 mph 9.0 mph 61% 0.01 in
16:34 60.8 °F 47.7 °F 30.04 in SSW 2.0 mph 9.0 mph 62% 0.01 in
16:39 61.6 °F 48.5 °F 30.03 in Calm   7.0 mph 62% 0.01 in
16:44 61.5 °F 47.1 °F 30.03 in SSW 6.0 mph 10.0 mph 59% 0.01 in
16:49 60.5 °F 46.6 °F 30.03 in SSE 6.0 mph 10.0 mph 60% 0.01 in
16:54 59.8 °F 46.3 °F 30.03 in SSW 4.0 mph 10.0 mph 61% 0.01 in
16:59 60.2 °F 48.0 °F 30.03 in Calm   8.0 mph 64% 0.01 in
17:04 61.1 °F 47.6 °F 30.04 in Calm   6.0 mph 61% 0.01 in
17:09 60.9 °F 47.4 °F 30.04 in Calm   9.0 mph 61% 0.01 in
17:14 60.8 °F 47.3 °F 30.04 in South 4.0 mph 9.0 mph 61% 0.01 in
17:19 61.5 °F 47.5 °F 30.04 in SSW 5.0 mph 11.0 mph 60% 0.01 in
17:24 61.8 °F 47.3 °F 30.04 in SSW 5.0 mph 11.0 mph 59% 0.01 in
17:29 61.8 °F 47.3 °F 30.04 in South 4.0 mph 10.0 mph 59% 0.01 in
17:34 61.6 °F 47.1 °F 30.04 in SSW 3.0 mph 9.0 mph 59% 0.01 in
17:44 60.1 °F 46.6 °F 30.04 in SSW 2.0 mph 13.0 mph 61% 0.01 in
17:49 59.6 °F 46.6 °F 30.04 in SSE 2.0 mph 13.0 mph 62% 0.01 in
17:54 59.4 °F 46.4 °F 30.04 in South 3.0 mph 10.0 mph 62% 0.01 in
17:59 59.6 °F 46.6 °F 30.04 in SSW 3.0 mph 10.0 mph 62% 0.01 in
18:04 59.8 °F 46.8 °F 30.04 in SSW 5.0 mph 12.0 mph 62% 0.01 in
18:09 59.4 °F 46.4 °F 30.04 in SSW 2.0 mph 12.0 mph 62% 0.01 in
18:14 59.0 °F 46.8 °F 30.04 in SSW 2.0 mph 11.0 mph 64% 0.01 in
18:19 58.9 °F 46.8 °F 30.04 in SW 1.0 mph 10.0 mph 64% 0.01 in
18:24 58.2 °F 46.1 °F 30.04 in SSE 3.0 mph 10.0 mph 64% 0.01 in
18:29 58.1 °F 46.4 °F 30.03 in Calm   10.0 mph 65% 0.01 in
18:39 57.4 °F 46.1 °F 30.04 in South 2.0 mph 10.0 mph 66% 0.01 in
18:44 57.2 °F 46.0 °F 30.04 in South 2.0 mph 10.0 mph 66% 0.01 in
18:49 56.9 °F 46.1 °F 30.04 in South 2.0 mph 8.0 mph 67% 0.01 in
18:54 56.5 °F 46.1 °F 30.04 in SSW 2.0 mph 8.0 mph 68% 0.01 in
18:59 56.0 °F 45.6 °F 30.04 in SSW 2.0 mph 7.0 mph 68% 0.01 in
19:09 55.2 °F 45.6 °F 30.04 in SSE 1.0 mph 12.0 mph 70% 0.01 in
19:14 54.9 °F 45.3 °F 30.04 in South 1.0 mph 9.0 mph 70% 0.01 in
19:19 54.7 °F 45.5 °F 30.04 in South 4.0 mph 9.0 mph 71% 0.01 in
19:24 54.5 °F 45.3 °F 30.04 in South 4.0 mph 10.0 mph 71% 0.01 in
19:29 54.3 °F 45.5 °F 30.03 in South 3.0 mph 10.0 mph 72% 0.01 in
19:34 54.1 °F 45.3 °F 30.04 in South 3.0 mph 7.0 mph 72% 0.01 in
19:39 54.0 °F 45.2 °F 30.03 in South 1.0 mph 7.0 mph 72% 0.01 in
19:44 53.9 °F 45.1 °F 30.03 in South 3.0 mph 9.0 mph 72% 0.01 in
19:49 53.8 °F 45.4 °F 30.03 in SSE 5.0 mph 9.0 mph 73% 0.01 in
19:54 53.8 °F 45.4 °F 30.03 in Calm   9.0 mph 73% 0.01 in
19:59 53.7 °F 45.3 °F 30.03 in South 1.0 mph 8.0 mph 73% 0.01 in
20:04 53.6 °F 45.2 °F 30.02 in SSE 1.0 mph 8.0 mph 73% 0.01 in
20:09 53.5 °F 45.4 °F 30.02 in South 1.0 mph 7.0 mph 74% 0.01 in
20:14 53.3 °F 45.2 °F 30.02 in SSE 3.0 mph 8.0 mph 74% 0.01 in
20:19 53.2 °F 45.1 °F 30.03 in Calm   8.0 mph 74% 0.01 in
20:24 53.0 °F 45.3 °F 30.03 in South 1.0 mph 7.0 mph 75% 0.01 in
20:29 52.9 °F 45.2 °F 30.04 in South 2.0 mph 7.0 mph 75% 0.01 in
20:34 52.8 °F 45.1 °F 30.03 in SSW 2.0 mph 7.0 mph 75% 0.01 in
20:39 52.6 °F 44.9 °F 30.03 in South 2.0 mph 7.0 mph 75% 0.01 in
20:44 52.4 °F 44.7 °F 30.03 in SSE 1.0 mph 7.0 mph 75% 0.01 in
20:49 52.3 °F 45.0 °F 30.03 in SSE 1.0 mph 9.0 mph 76% 0.01 in
20:54 52.1 °F 44.8 °F 30.03 in SSW 3.0 mph 10.0 mph 76% 0.01 in
20:59 51.9 °F 44.6 °F 30.03 in SSW 2.0 mph 10.0 mph 76% 0.01 in
21:04 51.8 °F 44.8 °F 30.03 in SSW 2.0 mph 8.0 mph 77% 0.01 in
21:09 51.8 °F 44.8 °F 30.03 in SSE 1.0 mph 8.0 mph 77% 0.01 in
21:14 51.8 °F 44.8 °F 30.03 in South 5.0 mph 8.0 mph 77% 0.01 in
21:19 51.9 °F 44.9 °F 30.04 in SSW 4.0 mph 13.0 mph 77% 0.01 in
21:24 51.9 °F 44.9 °F 30.04 in South 4.0 mph 13.0 mph 77% 0.01 in
21:29 51.9 °F 44.9 °F 30.03 in SSW 3.0 mph 10.0 mph 77% 0.01 in
21:34 51.8 °F 44.8 °F 30.03 in South 4.0 mph 10.0 mph 77% 0.01 in
21:39 51.7 °F 45.1 °F 30.03 in South 2.0 mph 9.0 mph 78% 0.01 in
21:44 51.7 °F 45.1 °F 30.02 in South 4.0 mph 12.0 mph 78% 0.01 in
21:49 51.7 °F 45.1 °F 30.02 in South 4.0 mph 12.0 mph 78% 0.01 in
21:54 51.6 °F 45.0 °F 30.02 in SSW 4.0 mph 10.0 mph 78% 0.01 in
21:59 51.5 °F 44.9 °F 30.02 in South 2.0 mph 9.0 mph 78% 0.01 in
22:04 51.5 °F 44.9 °F 30.01 in South 4.0 mph 9.0 mph 78% 0.01 in
22:09 51.5 °F 44.9 °F 30.02 in South 2.0 mph 11.0 mph 78% 0.01 in
22:14 51.5 °F 44.9 °F 30.02 in South 3.0 mph 11.0 mph 78% 0.01 in
22:24 51.5 °F 44.9 °F 30.02 in South 1.0 mph 6.0 mph 78% 0.01 in
22:29 51.5 °F 45.2 °F 30.03 in SSW 1.0 mph 6.0 mph 79% 0.01 in
22:34 51.5 °F 45.2 °F 30.03 in SSW 4.0 mph 11.0 mph 79% 0.01 in
22:39 51.5 °F 45.2 °F 30.03 in South 1.0 mph 11.0 mph 79% 0.01 in
22:44 51.5 °F 45.2 °F 30.03 in SSW 2.0 mph 10.0 mph 79% 0.01 in
22:49 51.4 °F 45.1 °F 30.03 in SW 1.0 mph 10.0 mph 79% 0.01 in
22:54 51.4 °F 45.1 °F 30.03 in SSW 5.0 mph 8.0 mph 79% 0.01 in
22:59 51.4 °F 45.1 °F 30.03 in SSW 5.0 mph 10.0 mph 79% 0.01 in
23:04 51.3 °F 45.0 °F 30.03 in SSW 3.0 mph 10.0 mph 79% 0.01 in
23:09 51.2 °F 44.9 °F 30.03 in SSW 4.0 mph 10.0 mph 79% 0.01 in
23:14 51.1 °F 44.8 °F 30.03 in SSW 3.0 mph 9.0 mph 79% 0.01 in
23:19 51.1 °F 45.2 °F 30.03 in SSW 2.0 mph 9.0 mph 80% 0.01 in
23:24 51.1 °F 45.2 °F 30.03 in SSW 4.0 mph 9.0 mph 80% 0.01 in
23:29 51.0 °F 45.1 °F 30.03 in SSW 3.0 mph 9.0 mph 80% 0.01 in
23:34 51.0 °F 45.1 °F 30.03 in SSW 4.0 mph 9.0 mph 80% 0.01 in
23:39 51.0 °F 45.1 °F 30.03 in SSW 4.0 mph 12.0 mph 80% 0.01 in
23:44 51.0 °F 45.1 °F 30.02 in SSW 3.0 mph 12.0 mph 80% 0.01 in
23:49 51.0 °F 45.1 °F 30.02 in South 5.0 mph 14.0 mph 80% 0.01 in
23:54 50.9 °F 45.3 °F 30.02 in South 5.0 mph 14.0 mph 81% 0.01 in
23:59 50.7 °F 45.4 °F 30.02 in South 3.0 mph 10.0 mph 82% 0.01 in
Westford Weather
Compliments of Weather Underground

 
 
Current Radar Loop:

Copyright © WestfordWeather.net 2007-2014. All rights reserved.